Rio Frio, Texas
Current Conditions -  °F | °C
As of 1:55 AM on Tuesday 21 Oct 2014 (Local Time) from KUVA Reporting Station
Clear Clear  
Wind Chill: 65°   Ceiling: Unl
Heat Index: 65°   Visibility: 10mi
Dew Point: 58°   Wind: 3mph
Humidity: 77%   Direction: 60°ENE
Pressure: 30.04"   Gusts: NA
Location:  29.64°N, 99.74°W
Report Text: KUVA 210655Z AUTO 06003KT 10SM CLR 19/15 A3004 RMK AO2 T01850145
Loading
Personal Weather Stations






























Interactive Weather Map
Tropical Storm Tracking
New forecast layout! Learn more

10-Day Weather Forecast

Advertisements
Track Severe Weather on mobile